Time;durP1;ratioP1;P1;durP2;ratioP2;P2;SDS_P1;SDS_P2;PMS_P1;PMS_P2;Temp;Humidity;BMP_temperature;BMP_pressure;BME280_temperature;BME280_humidity;BME280_pressure;Samples;Min_cycle;Max_cycle;Signal;HPM_P1;HPM_P2
2023/03/07 00:02:07;;;;;;;11.73;10.53;;;;;;;-0.15;100.00;95790.44;5047991;28;20430;-70
2023/03/07 00:04:34;;;;;;;12.83;10.93;;;;;;;-0.15;100.00;95789.66;5073304;28;20213;-68
2023/03/07 00:07:02;;;;;;;13.33;10.97;;;;;;;-0.18;100.00;95784.75;5068010;28;20206;-68
2023/03/07 00:09:30;;;;;;;15.33;12.43;;;;;;;-0.20;100.00;95787.50;5074597;28;20522;-68
2023/03/07 00:11:59;;;;;;;12.27;10.80;;;;;;;-0.18;100.00;95784.75;5071575;28;20209;-69
2023/03/07 00:14:26;;;;;;;13.60;11.73;;;;;;;-0.18;100.00;95782.13;5020691;28;20307;-67
2023/03/07 00:16:54;;;;;;;14.50;10.50;;;;;;;-0.14;100.00;95778.25;5047593;28;20626;-69
2023/03/07 00:19:21;;;;;;;12.93;10.37;;;;;;;-0.18;100.00;95787.34;5068172;28;20534;-69
2023/03/07 00:21:49;;;;;;;12.63;11.33;;;;;;;-0.17;100.00;95775.97;5071270;28;20224;-69
2023/03/07 00:24:16;;;;;;;11.57;10.30;;;;;;;-0.15;100.00;95779.22;5067621;28;20281;-71
2023/03/07 00:26:44;;;;;;;11.57;10.37;;;;;;;-0.20;100.00;95771.88;5070711;28;20214;-69
2023/03/07 00:29:13;;;;;;;12.80;11.17;;;;;;;-0.22;100.00;95758.19;5019071;28;20605;-68
2023/03/07 00:31:40;;;;;;;11.87;10.63;;;;;;;-0.22;100.00;95759.97;5048092;28;20214;-69
2023/03/07 00:34:08;;;;;;;14.00;10.80;;;;;;;-0.22;100.00;95759.97;5069915;28;20221;-69
2023/03/07 00:36:36;;;;;;;13.57;11.47;;;;;;;-0.25;100.00;95761.09;5072471;28;20229;-68
2023/03/07 00:39:03;;;;;;;16.13;13.57;;;;;;;-0.23;100.00;95758.31;5070574;28;20574;-69
2023/03/07 00:41:31;;;;;;;14.13;11.37;;;;;;;-0.26;100.00;95767.28;5075009;28;20213;-68
2023/03/07 00:43:59;;;;;;;12.30;10.97;;;;;;;-0.34;100.00;95749.78;5048752;28;20198;-69
2023/03/07 00:46:28;;;;;;;13.00;10.27;;;;;;;-0.30;100.00;95750.31;5045427;28;20558;-68
2023/03/07 00:48:56;;;;;;;11.87;10.67;;;;;;;-0.30;100.00;95758.94;5057150;28;20198;-70
2023/03/07 00:51:24;;;;;;;12.80;11.00;;;;;;;-0.28;100.00;95747.56;5068330;28;20921;-68
2023/03/07 00:53:51;;;;;;;13.40;11.23;;;;;;;-0.28;100.00;95744.94;5067751;28;20617;-71
2023/03/07 00:56:20;;;;;;;12.20;10.77;;;;;;;-0.31;100.00;95740.88;5069326;28;20303;-69
2023/03/07 00:58:48;;;;;;;12.57;11.00;;;;;;;-0.31;100.00;95733.06;5071019;28;20850;-70
2023/03/07 01:01:18;;;;;;;13.83;11.87;;;;;;;-0.24;100.00;95736.69;5020309;28;20315;-68
2023/03/07 01:03:48;;;;;;;13.23;11.57;;;;;;;-0.26;100.00;95735.19;5053092;28;20936;-69
2023/03/07 01:06:18;;;;;;;15.40;11.73;;;;;;;-0.23;100.00;95732.28;5065377;28;20925;-68
2023/03/07 01:08:45;;;;;;;11.60;10.40;;;;;;;-0.27;100.00;95725.75;5076590;28;20236;-70
2023/03/07 01:11:13;;;;;;;12.70;11.40;;;;;;;-0.27;100.00;95730.97;5067156;28;20522;-69
2023/03/07 01:13:41;;;;;;;13.73;11.30;;;;;;;-0.27;100.00;95720.56;5075868;28;20681;-70
2023/03/07 01:16:10;;;;;;;12.03;10.47;;;;;;;-0.25;100.00;95721.22;5009919;28;20218;-69
2023/03/07 01:18:38;;;;;;;12.27;11.00;;;;;;;-0.24;100.00;95720.25;5063767;28;20705;-69
2023/03/07 01:21:14;;;;;;;11.67;10.23;;;;;;;-0.26;100.00;95704.78;5045473;28;20202;-69
2023/03/07 01:23:42;;;;;;;12.57;9.70;;;;;;;-0.28;100.00;95706.75;5077215;28;20945;-68
2023/03/07 01:26:12;;;;;;;14.03;10.70;;;;;;;-0.27;100.00;95713.56;5065395;28;20214;-68
2023/03/07 01:28:39;;;;;;;13.30;10.67;;;;;;;-0.26;100.00;95702.19;5071895;28;20740;-70
2023/03/07 01:31:07;;;;;;;12.47;11.17;;;;;;;-0.27;100.00;95695.34;5013040;28;20218;-69
2023/03/07 01:33:35;;;;;;;13.70;11.37;;;;;;;-0.27;100.00;95694.53;5066838;28;20203;-68
2023/03/07 01:36:03;;;;;;;12.33;11.03;;;;;;;-0.28;100.00;95691.13;5050536;28;20222;-69
2023/03/07 01:38:33;;;;;;;11.93;10.70;;;;;;;-0.25;100.00;95687.38;5066091;28;20259;-68
2023/03/07 01:41:00;;;;;;;13.37;11.77;;;;;;;-0.26;100.00;95688.34;5073238;28;20774;-69
2023/03/07 01:43:29;;;;;;;11.67;10.33;;;;;;;-0.26;100.00;95688.34;5070465;28;20927;-68
2023/03/07 01:46:25;;;;;;;12.23;11.10;;;;;;;-0.27;100.00;95684.94;5017656;28;20573;-69
2023/03/07 01:48:55;;;;;;;12.50;11.20;;;;;;;-0.28;100.00;95680.72;5067506;28;20201;-69
2023/03/07 01:51:23;;;;;;;12.90;10.63;;;;;;;-0.25;100.00;95677.78;5045318;28;20446;-70
2023/03/07 01:53:53;;;;;;;11.90;9.53;;;;;;;-0.25;100.00;95671.75;5069445;28;20898;-69
2023/03/07 01:56:21;;;;;;;10.90;9.80;;;;;;;-0.19;100.00;95673.75;5067998;28;20416;-71
2023/03/07 01:58:50;;;;;;;12.73;11.07;;;;;;;-0.18;100.00;95671.00;5071454;28;20194;-72
2023/03/07 02:01:18;;;;;;;14.60;11.00;;;;;;;-0.25;100.00;95669.97;5008764;28;20225;-70
2023/03/07 02:03:48;;;;;;;12.60;11.00;;;;;;;-0.26;100.00;95670.97;5071955;28;20501;-71
2023/03/07 02:06:16;;;;;;;12.17;10.87;;;;;;;-0.27;100.00;95664.13;5053105;28;20230;-71
2023/03/07 02:08:44;;;;;;;11.50;10.30;;;;;;;-0.27;100.00;95663.28;5059405;28;20262;-69
2023/03/07 02:11:13;;;;;;;13.33;11.27;;;;;;;-0.27;100.00;95652.88;5072737;28;20209;-70
2023/03/07 02:13:41;;;;;;;13.47;10.87;;;;;;;-0.23;100.00;95654.19;5070619;28;20433;-69
2023/03/07 02:16:09;;;;;;;12.00;10.80;;;;;;;-0.30;100.00;95631.38;5023573;28;20226;-69
2023/03/07 02:18:41;;;;;;;11.57;10.37;;;;;;;-0.19;100.00;95639.91;5046673;28;20452;-68
2023/03/07 02:21:14;;;;;;;11.67;10.47;;;;;;;-0.23;100.00;95635.97;5068398;28;20460;-69
2023/03/07 02:23:44;;;;;;;12.97;10.90;;;;;;;-0.23;100.00;95635.97;5068669;28;20532;-70
2023/03/07 02:26:19;;;;;;;12.73;10.70;;;;;;;-0.29;100.00;95637.44;5071445;28;20225;-69
2023/03/07 02:28:48;;;;;;;11.37;10.20;;;;;;;-0.31;100.00;95636.78;5069715;28;20291;-70
2023/03/07 02:31:16;;;;;;;11.90;10.27;;;;;;;-0.32;100.00;95632.53;5072623;28;20705;-71
2023/03/07 02:33:43;;;;;;;13.83;10.90;;;;;;;-0.34;100.00;95627.47;5019847;28;20576;-69
2023/03/07 02:36:14;;;;;;;12.17;10.03;;;;;;;-0.41;100.00;95615.22;5058828;28;20511;-69
2023/03/07 02:38:44;;;;;;;15.07;11.83;;;;;;;-0.39;100.00;95629.72;5070792;28;20220;-69
2023/03/07 02:41:13;;;;;;;12.77;11.30;;;;;;;-0.38;100.00;95631.34;5065960;28;20224;-70
2023/03/07 02:43:40;;;;;;;13.37;10.93;;;;;;;-0.36;100.00;95636.41;5071206;28;20189;-69
2023/03/07 02:46:09;;;;;;;14.20;10.87;;;;;;;-0.30;100.00;95636.59;5069345;28;20229;-72
2023/03/07 02:48:37;;;;;;;15.00;11.63;;;;;;;-0.35;100.00;95638.06;5017126;28;21156;-69
2023/03/07 02:51:05;;;;;;;13.40;11.63;;;;;;;-0.37;100.00;95635.59;5065809;28;20236;-70
2023/03/07 02:53:33;;;;;;;12.07;10.77;;;;;;;-0.37;100.00;95635.59;5052821;28;20318;-68
2023/03/07 02:56:01;;;;;;;12.83;11.43;;;;;;;-0.44;100.00;95631.97;5070886;28;20218;-69
2023/03/07 02:58:28;;;;;;;11.03;9.93;;;;;;;-0.44;100.00;95629.38;5063660;28;20892;-71
2023/03/07 03:00:56;;;;;;;11.83;10.50;;;;;;;-0.44;100.00;95639.78;5074205;28;20495;-69
2023/03/07 03:03:25;;;;;;;14.37;11.37;;;;;;;-0.52;100.00;95626.72;5015582;28;21039;-68
2023/03/07 03:05:53;;;;;;;11.93;9.97;;;;;;;-0.49;100.00;95626.41;5065775;28;20219;-68
2023/03/07 03:08:20;;;;;;;10.33;9.27;;;;;;;-0.43;100.00;95628.41;5046701;28;20209;-71
2023/03/07 03:10:52;;;;;;;12.03;10.20;;;;;;;-0.41;100.00;95629.06;5064127;28;20486;-69
2023/03/07 03:13:20;;;;;;;14.43;11.00;;;;;;;-0.44;100.00;95629.38;5071512;28;20646;-70
2023/03/07 03:15:47;;;;;;;11.40;10.20;;;;;;;-0.38;100.00;95633.13;5066855;28;20945;-69
2023/03/07 03:18:16;;;;;;;12.47;10.63;;;;;;;-0.37;100.00;95627.78;5066542;28;20291;-69
2023/03/07 03:20:45;;;;;;;11.47;10.00;;;;;;;-0.36;100.00;95623.41;5015397;28;20198;-70
2023/03/07 03:23:12;;;;;;;15.57;10.50;;;;;;;-0.42;100.00;95629.19;5045186;28;20202;-70
2023/03/07 03:25:40;;;;;;;10.43;9.43;;;;;;;-0.40;100.00;95627.25;5071066;28;20213;-70
2023/03/07 03:28:08;;;;;;;12.03;10.60;;;;;;;-0.41;100.00;95626.44;5070817;28;20221;-68
2023/03/07 03:30:35;;;;;;;10.67;9.57;;;;;;;-0.49;100.00;95616.81;5064178;28;20868;-69
2023/03/07 03:33:03;;;;;;;13.87;10.30;;;;;;;-0.44;100.00;95627.56;5070475;28;20197;-68
2023/03/07 03:35:32;;;;;;;13.13;11.07;;;;;;;-0.49;100.00;95627.22;5020153;28;20234;-69
2023/03/07 03:38:01;;;;;;;13.80;10.60;;;;;;;-0.45;100.00;95620.72;5045741;28;20257;-68
2023/03/07 03:40:30;;;;;;;10.70;9.60;;;;;;;-0.47;100.00;95619.28;5068098;28;20226;-69
2023/03/07 03:42:57;;;;;;;10.97;9.70;;;;;;;-0.48;100.00;95617.63;5072235;28;20473;-68
2023/03/07 03:45:25;;;;;;;14.50;9.93;;;;;;;-0.50;100.00;95615.19;5064521;28;20762;-69
2023/03/07 03:47:52;;;;;;;14.03;10.30;;;;;;;-0.49;100.00;95614.19;5071278;28;20198;-70
2023/03/07 03:50:20;;;;;;;11.87;10.20;;;;;;;-0.48;100.00;95609.84;5024998;28;20213;-69
2023/03/07 03:52:47;;;;;;;11.63;10.40;;;;;;;-0.52;100.00;95600.69;5051201;28;20236;-69
2023/03/07 03:55:17;;;;;;;11.93;10.70;;;;;;;-0.55;100.00;95596.59;5074729;28;20233;-69
2023/03/07 03:57:44;;;;;;;11.87;10.63;;;;;;;-0.52;100.00;95605.91;5068788;28;20787;-70
2023/03/07 04:00:14;;;;;;;11.13;9.90;;;;;;;-0.59;100.00;95601.28;5076423;28;20721;-69
2023/03/07 04:02:42;;;;;;;10.27;9.27;;;;;;;-0.61;100.00;95598.03;5065588;28;20226;-69
2023/03/07 04:05:10;;;;;;;11.63;10.03;;;;;;;-0.64;100.00;95595.72;5070759;28;20325;-68
2023/03/07 04:07:37;;;;;;;11.47;10.27;;;;;;;-0.65;100.00;95599.31;5002765;28;20590;-69
2023/03/07 04:10:06;;;;;;;11.33;10.13;;;;;;;-0.67;100.00;95597.84;5073893;28;20463;-70
2023/03/07 04:12:35;;;;;;;13.30;11.07;;;;;;;-0.73;100.00;95594.88;5069966;28;20720;-69
2023/03/07 04:15:04;;;;;;;11.73;10.30;;;;;;;-0.73;100.00;95596.66;5074882;28;20236;-70
2023/03/07 04:17:31;;;;;;;12.77;11.07;;;;;;;-0.75;100.00;95596.00;5066699;28;20673;-69
2023/03/07 04:19:59;;;;;;;11.87;10.67;;;;;;;-0.78;100.00;95597.09;5078427;28;20194;-70
2023/03/07 04:22:26;;;;;;;11.03;9.60;;;;;;;-0.81;100.00;95596.59;5018266;28;20219;-68
2023/03/07 04:24:54;;;;;;;12.40;10.80;;;;;;;-0.83;100.00;95596.75;5051963;28;20514;-68
2023/03/07 04:27:22;;;;;;;12.07;9.80;;;;;;;-0.83;100.00;95598.53;5044597;28;20210;-69
2023/03/07 04:29:50;;;;;;;13.77;10.33;;;;;;;-0.83;100.00;95599.34;5071511;28;20226;-67
2023/03/07 04:32:18;;;;;;;11.57;9.67;;;;;;;-0.82;100.00;95595.78;5069263;28;20218;-68
2023/03/07 04:34:46;;;;;;;12.47;10.37;;;;;;;-0.84;100.00;95591.72;5070741;28;20271;-68
2023/03/07 04:37:14;;;;;;;14.33;10.77;;;;;;;-0.81;100.00;95588.81;5063950;28;20241;-68
2023/03/07 04:39:42;;;;;;;11.10;9.93;;;;;;;-0.81;100.00;95594.00;5028944;28;20245;-67
2023/03/07 04:42:09;;;;;;;13.67;10.33;;;;;;;-0.86;100.00;95599.66;5079090;28;20197;-69
2023/03/07 04:44:37;;;;;;;13.07;10.50;;;;;;;-0.82;100.00;95595.78;5069671;28;20198;-68
2023/03/07 04:47:06;;;;;;;11.77;10.57;;;;;;;-0.74;100.00;95590.66;5068250;28;20202;-70
2023/03/07 04:49:34;;;;;;;12.50;10.60;;;;;;;-0.69;100.00;95591.97;5068590;28;20198;-70
2023/03/07 04:52:01;;;;;;;11.30;10.20;;;;;;;-0.68;100.00;95593.59;5073983;28;20218;-71
2023/03/07 04:54:29;;;;;;;13.33;11.33;;;;;;;-0.67;100.00;95595.25;5034590;28;20214;-72
2023/03/07 04:56:56;;;;;;;12.87;10.87;;;;;;;-0.64;100.00;95593.13;5055877;28;20221;-71
2023/03/07 04:59:24;;;;;;;17.10;10.47;;;;;;;-0.63;100.00;95576.56;5072369;28;20206;-69
2023/03/07 05:01:51;;;;;;;12.43;11.07;;;;;;;-0.56;100.00;95584.56;5065525;28;20200;-71
2023/03/07 05:04:20;;;;;;;13.83;10.50;;;;;;;-0.51;100.00;95589.31;5073484;28;20801;-70
2023/03/07 05:06:48;;;;;;;15.00;11.70;;;;;;;-0.50;100.00;95590.97;5067993;28;21634;-70
2023/03/07 05:09:15;;;;;;;11.53;10.07;;;;;;;-0.47;100.00;95594.03;5036928;28;20210;-72
2023/03/07 05:11:43;;;;;;;11.40;10.23;;;;;;;-0.42;100.00;95579.75;5048921;28;21103;-72
2023/03/07 05:14:11;;;;;;;12.97;10.53;;;;;;;-0.43;100.00;95589.38;5060694;28;20299;-69
2023/03/07 05:16:38;;;;;;;12.20;9.80;;;;;;;-0.40;100.00;95586.44;5071675;28;20923;-70
2023/03/07 05:19:06;;;;;;;10.90;9.73;;;;;;;-0.42;100.00;95583.19;5074572;28;20202;-71
2023/03/07 05:21:38;;;;;;;14.23;11.17;;;;;;;-0.41;100.00;95584.81;5065600;28;20855;-69
2023/03/07 05:24:06;;;;;;;10.63;9.00;;;;;;;-0.41;100.00;95582.22;5069191;28;20210;-69
2023/03/07 05:26:34;;;;;;;11.57;9.83;;;;;;;-0.43;100.00;95584.16;5011066;28;20899;-69
2023/03/07 05:29:01;;;;;;;10.63;9.27;;;;;;;-0.44;100.00;95582.53;5071920;28;20198;-69
2023/03/07 05:31:29;;;;;;;11.20;9.67;;;;;;;-0.39;100.00;95574.22;5042903;28;20237;-72
2023/03/07 05:33:57;;;;;;;12.00;10.17;;;;;;;-0.33;100.00;95574.44;5072759;28;20190;-71
2023/03/07 05:36:24;;;;;;;12.10;9.27;;;;;;;-0.32;100.00;95573.47;5067651;28;20224;-71
2023/03/07 05:38:55;;;;;;;11.33;9.37;;;;;;;-0.28;100.00;95580.97;5072749;28;20186;-69
2023/03/07 05:41:23;;;;;;;11.33;10.13;;;;;;;-0.27;100.00;95580.00;5034941;28;20210;-70
2023/03/07 05:43:50;;;;;;;11.93;10.63;;;;;;;-0.25;100.00;95578.88;5049595;28;20211;-71
2023/03/07 05:46:19;;;;;;;12.03;9.77;;;;;;;-0.25;100.00;95575.44;5071557;28;20222;-70
2023/03/07 05:48:47;;;;;;;10.73;9.03;;;;;;;-0.24;100.00;95571.88;5078319;28;20189;-70
2023/03/07 05:51:14;;;;;;;10.83;9.13;;;;;;;-0.31;100.00;95572.50;5070288;28;21536;-70
2023/03/07 05:53:42;;;;;;;13.40;9.93;;;;;;;-0.29;100.00;95577.56;5062747;28;20222;-69
2023/03/07 05:56:13;;;;;;;12.80;10.47;;;;;;;-0.40;100.00;95563.03;5074311;28;20207;-70
2023/03/07 05:58:41;;;;;;;14.10;10.93;;;;;;;-0.36;100.00;95572.16;5034757;28;20673;-70
2023/03/07 06:01:09;;;;;;;11.60;10.10;;;;;;;-0.36;100.00;95571.34;5069025;28;20480;-69
2023/03/07 06:03:37;;;;;;;12.10;9.87;;;;;;;-0.39;100.00;95569.03;5066366;28;20451;-70
2023/03/07 06:06:05;;;;;;;11.13;9.90;;;;;;;-0.43;100.00;95563.34;5076730;28;20218;-72
2023/03/07 06:08:33;;;;;;;11.70;10.17;;;;;;;-0.44;100.00;95567.72;5061927;28;20426;-69
2023/03/07 06:11:01;;;;;;;13.17;10.30;;;;;;;-0.42;100.00;95574.56;5072057;28;20721;-70
2023/03/07 06:13:30;;;;;;;11.00;9.90;;;;;;;-0.41;100.00;95581.38;5018233;28;20230;-70
2023/03/07 06:15:58;;;;;;;13.27;10.30;;;;;;;-0.45;100.00;95573.09;5070799;28;20262;-69
2023/03/07 06:18:26;;;;;;;11.77;10.50;;;;;;;-0.42;100.00;95567.56;5062259;28;20194;-69
2023/03/07 06:20:55;;;;;;;12.37;10.40;;;;;;;-0.31;100.00;95576.91;5067892;28;20205;-69
2023/03/07 06:23:23;;;;;;;12.77;10.37;;;;;;;-0.30;100.00;95581.94;5069400;28;20405;-71
2023/03/07 06:25:51;;;;;;;14.87;11.60;;;;;;;-0.22;100.00;95582.94;5069692;28;20304;-70
2023/03/07 06:28:19;;;;;;;12.33;10.60;;;;;;;-0.24;100.00;95583.13;5022395;28;20202;-70
2023/03/07 06:30:48;;;;;;;11.37;10.17;;;;;;;-0.19;100.00;95574.81;5072130;28;20485;-68
2023/03/07 06:33:16;;;;;;;11.63;10.43;;;;;;;-0.06;100.00;95585.63;5068169;28;20263;-71
2023/03/07 06:35:44;;;;;;;12.13;10.67;;;;;;;-0.07;100.00;95577.97;5068169;28;20549;-69
2023/03/07 06:38:14;;;;;;;11.20;10.07;;;;;;;-0.03;100.00;95582.72;5070553;28;20204;-72
2023/03/07 06:40:42;;;;;;;12.87;10.80;;;;;;;-0.03;100.00;95589.69;5066706;28;20406;-70
2023/03/07 06:43:11;;;;;;;12.83;11.53;;;;;;;-0.01;100.00;95572.13;5074366;28;20214;-71
2023/03/07 06:45:39;;;;;;;15.80;13.20;;;;;;;0.03;100.00;95585.66;5031257;28;20498;-72
2023/03/07 06:48:08;;;;;;;17.70;15.10;;;;;;;0.03;100.00;95570.03;5073523;28;20353;-70
2023/03/07 06:50:37;;;;;;;15.93;13.73;;;;;;;0.15;100.00;95571.34;5078232;28;20493;-71
2023/03/07 06:53:05;;;;;;;11.77;10.53;;;;;;;0.18;100.00;95570.25;5067232;28;20225;-71
2023/03/07 06:55:33;;;;;;;13.37;11.40;;;;;;;0.24;100.00;95578.25;5068350;28;21044;-70
2023/03/07 06:58:00;;;;;;;16.73;11.13;;;;;;;0.26;100.00;95578.91;5076748;28;20190;-70
2023/03/07 07:00:28;;;;;;;10.97;9.87;;;;;;;0.25;100.00;95579.03;5020490;28;20578;-70
2023/03/07 07:02:56;;;;;;;11.97;10.33;;;;;;;0.32;100.00;95584.44;5078050;28;20221;-69
2023/03/07 07:05:26;;;;;;;11.90;10.67;;;;;;;0.38;100.00;95571.59;5075879;28;20226;-70
2023/03/07 07:07:53;;;;;;;12.00;10.73;;;;;;;0.37;100.00;95575.16;5069870;28;21440;-71
2023/03/07 07:10:21;;;;;;;13.40;11.23;;;;;;;0.41;100.00;95583.47;5079808;28;20229;-71
2023/03/07 07:12:53;;;;;;;13.57;11.10;;;;;;;0.45;100.00;95589.19;5067633;28;21326;-69
2023/03/07 07:15:21;;;;;;;14.13;11.40;;;;;;;0.43;100.00;95578.94;5024129;28;20234;-68
2023/03/07 07:17:48;;;;;;;12.33;11.03;;;;;;;0.40;100.00;95572.25;5045235;28;20205;-68
2023/03/07 07:20:16;;;;;;;13.50;11.30;;;;;;;0.47;100.00;95576.81;5078762;28;20203;-69
2023/03/07 07:22:45;;;;;;;12.57;11.27;;;;;;;0.41;100.00;95576.50;5071729;28;20406;-68
2023/03/07 07:25:13;;;;;;;12.83;11.57;;;;;;;0.59;100.00;95582.56;5073614;28;20616;-70
2023/03/07 07:27:41;;;;;;;11.53;10.33;;;;;;;0.59;100.00;95583.34;5072259;28;20285;-69
2023/03/07 07:30:11;;;;;;;14.60;11.70;;;;;;;0.70;100.00;95579.63;5082933;28;20202;-69
2023/03/07 07:32:39;;;;;;;11.73;10.27;;;;;;;0.82;100.00;95577.53;5042838;28;20430;-69
2023/03/07 07:35:08;;;;;;;12.70;11.40;;;;;;;0.81;100.00;95576.69;5076955;28;20309;-69
2023/03/07 07:37:36;;;;;;;13.20;11.87;;;;;;;0.82;100.00;95572.31;5069751;28;20589;-68
2023/03/07 07:40:07;;;;;;;13.73;11.37;;;;;;;0.96;100.00;95579.47;5079427;28;20367;-69
2023/03/07 07:42:35;;;;;;;13.10;11.70;;;;;;;0.98;100.00;95576.72;5075914;28;20459;-69
2023/03/07 07:45:03;;;;;;;14.80;12.17;;;;;;;1.03;100.00;95577.03;5073027;28;20641;-69
2023/03/07 07:47:31;;;;;;;12.13;10.87;;;;;;;1.04;100.00;95573.44;5023442;28;20516;-68
2023/03/07 07:49:58;;;;;;;12.77;10.63;;;;;;;1.07;99.21;95577.50;5081649;28;20205;-69
2023/03/07 07:52:26;;;;;;;12.17;10.40;;;;;;;1.12;98.46;95576.03;5074142;28;20293;-67
2023/03/07 07:54:54;;;;;;;13.50;11.37;;;;;;;1.19;97.60;95577.97;5079429;28;20245;-69
2023/03/07 07:57:23;;;;;;;13.87;10.97;;;;;;;1.18;97.26;95574.56;5074610;28;20214;-69
2023/03/07 07:59:51;;;;;;;12.67;11.27;;;;;;;1.25;97.38;95565.09;5079471;28;20328;-67
2023/03/07 08:02:18;;;;;;;11.23;10.13;;;;;;;1.30;96.82;95575.03;5024612;28;20210;-69
2023/03/07 08:04:47;;;;;;;10.60;9.50;;;;;;;1.30;96.77;95577.63;5076077;28;20213;-68
2023/03/07 08:07:15;;;;;;;12.13;10.93;;;;;;;1.36;95.84;95574.38;5068975;28;21053;-69
2023/03/07 08:09:42;;;;;;;11.60;10.33;;;;;;;1.41;95.76;95579.09;5077606;28;20737;-68
2023/03/07 08:12:11;;;;;;;11.03;9.27;;;;;;;1.51;95.56;95571.09;5076433;28;21249;-67
2023/03/07 08:14:40;;;;;;;11.17;9.93;;;;;;;1.44;95.26;95565.72;5076511;28;20229;-68
2023/03/07 08:17:08;;;;;;;10.47;9.47;;;;;;;1.40;94.93;95567.03;5023719;28;20213;-69
2023/03/07 08:19:36;;;;;;;11.97;9.53;;;;;;;1.49;94.34;95565.22;5075036;28;20522;-69
2023/03/07 08:22:03;;;;;;;12.87;11.13;;;;;;;1.67;95.25;95559.78;5077932;28;20196;-69
2023/03/07 08:24:34;;;;;;;10.80;9.70;;;;;;;1.63;93.81;95564.50;5068434;28;20392;-68
2023/03/07 08:27:07;;;;;;;10.53;9.30;;;;;;;1.51;93.57;95561.44;5075062;28;20219;-68
2023/03/07 08:29:35;;;;;;;12.27;11.07;;;;;;;1.46;93.86;95561.13;5069040;28;20281;-68
2023/03/07 08:32:04;;;;;;;10.27;9.10;;;;;;;1.64;94.14;95554.91;5024037;28;20679;-68
2023/03/07 08:34:32;;;;;;;10.40;9.40;;;;;;;1.83;93.81;95554.50;5070837;28;20465;-68
2023/03/07 08:37:00;;;;;;;10.20;8.83;;;;;;;1.81;92.57;95553.84;5064910;28;20206;-68
2023/03/07 08:39:28;;;;;;;9.43;8.53;;;;;;;1.89;91.50;95558.22;5075047;28;20295;-70
2023/03/07 08:41:56;;;;;;;10.50;9.50;;;;;;;1.85;90.94;95554.34;5077461;28;20194;-67
2023/03/07 08:44:24;;;;;;;12.07;9.43;;;;;;;1.83;90.54;95553.69;5070219;28;20206;-69
2023/03/07 08:46:51;;;;;;;9.67;8.77;;;;;;;1.92;90.39;95557.91;5074175;28;20313;-70
2023/03/07 08:49:20;;;;;;;11.13;10.03;;;;;;;2.00;91.34;95555.25;5017904;28;20569;-69
2023/03/07 08:51:48;;;;;;;10.57;9.47;;;;;;;2.29;90.47;95542.53;5073464;28;20488;-68
2023/03/07 08:54:16;;;;;;;10.87;8.67;;;;;;;2.19;89.21;95547.97;5067327;28;20272;-69
2023/03/07 08:56:44;;;;;;;9.70;8.80;;;;;;;2.19;88.40;95541.91;5067730;28;20218;-69
2023/03/07 08:59:12;;;;;;;12.07;9.13;;;;;;;2.25;88.39;95536.84;5075752;28;20652;-69
2023/03/07 09:01:39;;;;;;;12.63;9.73;;;;;;;2.21;87.21;95540.78;5067117;28;20581;-70
2023/03/07 09:04:07;;;;;;;9.67;8.67;;;;;;;2.28;87.03;95535.69;5025430;28;20630;-68
2023/03/07 09:06:36;;;;;;;13.70;10.13;;;;;;;2.04;86.32;95542.66;5069008;28;20512;-69
2023/03/07 09:09:05;;;;;;;11.17;9.90;;;;;;;2.05;86.89;95543.47;5076962;28;20209;-69
2023/03/07 09:11:32;;;;;;;10.13;9.10;;;;;;;2.17;85.77;95529.03;5072526;28;20288;-68
2023/03/07 09:14:00;;;;;;;9.57;8.67;;;;;;;2.38;86.04;95525.00;5077528;28;20253;-68
2023/03/07 09:16:28;;;;;;;11.47;9.37;;;;;;;2.41;86.26;95525.47;5067376;28;20236;-68
2023/03/07 09:18:55;;;;;;;10.90;9.90;;;;;;;2.46;84.82;95517.91;5028967;28;20210;-68
2023/03/07 09:21:23;;;;;;;11.57;9.60;;;;;;;2.68;84.57;95523.31;5068442;28;20241;-69
2023/03/07 09:23:52;;;;;;;10.90;9.80;;;;;;;2.46;83.10;95517.09;5070859;28;20460;-68
2023/03/07 09:26:20;;;;;;;10.87;9.53;;;;;;;2.43;84.38;95518.25;5071820;28;20229;-69
2023/03/07 09:28:48;;;;;;;10.73;9.70;;;;;;;2.43;83.17;95515.66;5074449;28;20201;-69
2023/03/07 09:31:16;;;;;;;10.93;9.13;;;;;;;2.38;83.50;95514.53;5075556;28;20371;-70
2023/03/07 09:33:44;;;;;;;12.67;9.70;;;;;;;2.41;83.67;95512.41;5024194;28;21207;-70
2023/03/07 09:36:14;;;;;;;10.33;9.33;;;;;;;2.48;83.14;95509.06;5069445;28;20222;-71
2023/03/07 09:38:42;;;;;;;10.43;9.40;;;;;;;2.41;82.30;95503.72;5069188;28;20195;-69
2023/03/07 09:41:21;;;;;;;11.13;9.60;;;;;;;2.73;83.17;95499.25;5074486;28;20319;-68
2023/03/07 09:43:57;;;;;;;10.50;9.43;;;;;;;2.79;82.06;95503.75;5075126;28;20699;-68
2023/03/07 09:46:30;;;;;;;10.50;9.40;;;;;;;2.77;81.74;95499.72;5065152;28;20337;-69
2023/03/07 09:49:19;;;;;;;11.40;10.20;;;;;;;2.84;81.30;95498.84;5075080;28;20198;-69
2023/03/07 09:51:50;;;;;;;10.67;9.37;;;;;;;3.14;80.78;95492.84;5052421;28;20226;-68
2023/03/07 09:54:20;;;;;;;10.57;8.77;;;;;;;3.31;79.60;95493.47;5072868;28;20271;-69
2023/03/07 09:56:52;;;;;;;10.00;8.97;;;;;;;3.17;78.55;95484.63;5074536;28;20222;-68
2023/03/07 09:59:24;;;;;;;10.13;8.77;;;;;;;3.64;77.98;95484.44;5067988;28;20693;-69
2023/03/07 10:01:56;;;;;;;10.23;9.23;;;;;;;3.60;77.17;95482.19;5071882;28;20301;-69
2023/03/07 10:04:28;;;;;;;10.23;8.27;;;;;;;3.73;77.49;95476.31;5066756;28;20289;-68
2023/03/07 10:06:58;;;;;;;10.20;9.10;;;;;;;3.89;75.57;95477.91;5026012;28;20220;-69
2023/03/07 10:09:27;;;;;;;11.23;10.13;;;;;;;4.04;76.45;95471.81;5071294;28;20213;-69
2023/03/07 10:12:10;;;;;;;9.43;8.20;;;;;;;4.14;75.91;95466.28;5070630;28;20557;-70
2023/03/07 10:15:03;;;;;;;10.77;9.67;;;;;;;4.14;75.95;95464.44;5068710;28;20228;-70
2023/03/07 10:17:44;;;;;;;9.60;8.80;;;;;;;4.26;74.53;95450.88;5065520;28;20293;-68
2023/03/07 10:20:19;;;;;;;12.07;10.87;;;;;;;4.54;73.90;95455.34;5058918;28;20679;-68
2023/03/07 10:22:53;;;;;;;9.67;8.73;;;;;;;4.71;72.73;95448.00;5054141;28;20210;-68
2023/03/07 10:25:25;;;;;;;9.97;8.83;;;;;;;5.00;71.99;95443.59;5068949;28;20340;-69
2023/03/07 10:28:00;;;;;;;10.10;9.13;;;;;;;4.76;71.59;95449.09;5071982;28;20206;-68
2023/03/07 10:30:31;;;;;;;10.43;8.77;;;;;;;4.80;71.82;95453.94;5067580;28;20967;-68
2023/03/07 10:32:59;;;;;;;10.40;9.40;;;;;;;5.00;72.97;95447.03;5070985;28;20285;-68
2023/03/07 10:35:37;;;;;;;9.90;9.00;;;;;;;4.59;72.39;95432.81;5019740;28;21473;-68
2023/03/07 10:38:14;;;;;;;10.87;9.83;;;;;;;4.86;71.17;95427.75;5070601;28;20498;-68
2023/03/07 10:40:47;;;;;;;9.40;8.53;;;;;;;4.90;71.15;95433.44;5068390;28;20502;-69
2023/03/07 10:43:22;;;;;;;8.83;8.03;;;;;;;5.14;71.10;95434.00;5071823;28;20202;-69
2023/03/07 10:45:53;;;;;;;9.60;8.77;;;;;;;4.46;71.90;95428.25;5069105;28;20371;-69
2023/03/07 10:48:21;;;;;;;9.73;8.83;;;;;;;5.04;71.95;95424.66;5070601;28;20256;-69
2023/03/07 10:50:53;;;;;;;10.23;8.53;;;;;;;4.61;70.55;95427.38;5071762;28;20285;-69
2023/03/07 10:53:22;;;;;;;9.50;8.60;;;;;;;4.78;71.70;95420.03;5022737;28;20351;-69
2023/03/07 10:55:51;;;;;;;10.50;8.40;;;;;;;5.28;70.26;95419.13;5072970;28;20222;-68
2023/03/07 10:58:22;;;;;;;9.33;8.43;;;;;;;5.47;71.39;95417.59;5070734;28;20629;-70
2023/03/07 11:01:16;;;;;;;9.77;8.77;;;;;;;5.55;68.87;95419.25;5071033;28;20285;-69
2023/03/07 11:03:46;;;;;;;10.30;8.17;;;;;;;5.59;68.84;95404.72;5077303;28;20270;-70
2023/03/07 11:06:36;;;;;;;8.73;8.03;;;;;;;5.77;68.10;95401.56;5073322;28;20243;-68
2023/03/07 11:09:15;;;;;;;9.17;8.27;;;;;;;6.03;66.99;95394.75;5030922;28;20832;-70
2023/03/07 11:11:51;;;;;;;8.73;7.90;;;;;;;5.47;67.58;95399.22;5079065;28;20638;-69
2023/03/07 11:14:21;;;;;;;8.77;7.90;;;;;;;5.57;68.03;95401.50;5075280;28;20240;-69
2023/03/07 11:16:51;;;;;;;8.93;8.00;;;;;;;5.78;67.97;95385.56;5072687;28;20226;-70
2023/03/07 11:19:44;;;;;;;8.57;7.70;;;;;;;5.55;66.89;95395.63;5072469;28;20288;-69
2023/03/07 11:22:20;;;;;;;8.67;7.87;;;;;;;5.56;68.50;95384.09;5071379;28;20890;-69
2023/03/07 11:24:51;;;;;;;9.93;9.00;;;;;;;5.28;68.15;95383.16;5027853;28;20230;-69
2023/03/07 11:27:22;;;;;;;8.23;7.43;;;;;;;5.07;68.50;95377.00;5073109;28;20198;-69
2023/03/07 11:30:19;;;;;;;8.73;7.80;;;;;;;5.36;68.75;95363.81;5078729;28;20190;-70